createdAt,value
2022-09-29T00:00:53.994Z,0.30
2022-09-29T00:03:22.246Z,0.33
2022-09-29T00:05:54.244Z,0.20
2022-09-29T00:08:23.425Z,0.30
2022-09-29T00:10:50.406Z,0.30
2022-09-29T00:13:17.747Z,0.30
2022-09-29T00:15:44.615Z,0.40
2022-09-29T00:18:15.035Z,0.40
2022-09-29T00:20:41.917Z,0.33
2022-09-29T00:23:08.634Z,0.30
2022-09-29T00:25:35.337Z,0.20
2022-09-29T00:28:02.266Z,0.30
2022-09-29T00:30:29.106Z,0.23
2022-09-29T00:32:55.832Z,0.30
2022-09-29T00:35:22.598Z,0.30
2022-09-29T00:37:49.299Z,0.23
2022-09-29T00:40:16.055Z,0.20
2022-09-29T00:42:42.796Z,0.27
2022-09-29T00:45:24.353Z,0.30
2022-09-29T00:48:04.357Z,0.50
2022-09-29T00:50:51.984Z,0.20
2022-09-29T00:53:21.698Z,0.30
2022-09-29T00:56:03.677Z,0.30
2022-09-29T00:58:36.215Z,0.20
2022-09-29T01:01:04.389Z,0.30
2022-09-29T01:03:35.854Z,0.20
2022-09-29T01:06:10.366Z,0.20
2022-09-29T01:08:41.866Z,0.20
2022-09-29T01:11:10.414Z,0.37
2022-09-29T01:13:38.145Z,0.30
2022-09-29T01:16:05.200Z,0.40
2022-09-29T01:18:32.346Z,0.57
2022-09-29T01:21:10.424Z,0.40
2022-09-29T01:23:57.715Z,0.20
2022-09-29T01:26:42.457Z,0.20
2022-09-29T01:29:37.104Z,0.30
2022-09-29T01:32:06.614Z,0.30
2022-09-29T01:34:55.036Z,0.20
2022-09-29T01:37:51.347Z,0.20
2022-09-29T01:40:43.595Z,0.20
2022-09-29T01:43:17.788Z,0.20
2022-09-29T01:45:51.887Z,0.50
2022-09-29T01:48:27.146Z,0.30
2022-09-29T01:50:56.648Z,0.20
2022-09-29T01:53:27.247Z,0.30
2022-09-29T01:55:57.654Z,0.23
2022-09-29T01:58:47.888Z,0.30
2022-09-29T02:01:15.407Z,0.20
2022-09-29T02:03:46.676Z,0.20
2022-09-29T02:06:18.044Z,0.57
2022-09-29T02:08:56.265Z,0.30
2022-09-29T02:11:23.418Z,0.40
2022-09-29T02:14:00.763Z,0.40
2022-09-29T02:16:36.173Z,0.40
2022-09-29T02:19:15.315Z,0.40
2022-09-29T02:21:43.704Z,0.30
2022-09-29T02:24:12.030Z,0.30
2022-09-29T02:26:38.796Z,0.57
2022-09-29T02:29:06.623Z,0.40
2022-09-29T02:31:34.547Z,0.63
2022-09-29T02:34:02.236Z,0.30
2022-09-29T02:36:57.275Z,0.70
2022-09-29T02:39:56.186Z,1.17
2022-09-29T02:42:31.838Z,0.30
2022-09-29T02:45:12.182Z,0.47
2022-09-29T02:47:57.636Z,0.40
2022-09-29T02:50:52.146Z,0.30
2022-09-29T02:53:24.118Z,0.47
2022-09-29T02:56:14.803Z,0.60
2022-09-29T02:58:49.920Z,0.30
2022-09-29T03:01:16.867Z,0.70
2022-09-29T03:03:43.934Z,0.30
2022-09-29T03:06:11.697Z,0.43
2022-09-29T03:08:38.366Z,0.27
2022-09-29T03:11:05.277Z,0.30
2022-09-29T03:13:31.943Z,0.40
2022-09-29T03:15:58.704Z,0.30
2022-09-29T03:18:25.536Z,0.33
2022-09-29T03:20:54.606Z,0.30
2022-09-29T03:23:21.676Z,0.60
2022-09-29T03:25:48.436Z,0.20
2022-09-29T03:28:16.624Z,0.47
2022-09-29T03:30:43.734Z,0.30
2022-09-29T03:33:10.444Z,0.67
2022-09-29T03:35:38.217Z,0.63
2022-09-29T03:38:07.186Z,0.50
2022-09-29T03:40:34.140Z,0.53
2022-09-29T03:43:00.939Z,0.67
2022-09-29T03:45:27.613Z,0.60
2022-09-29T03:47:54.345Z,0.53
2022-09-29T03:50:21.158Z,0.30
2022-09-29T03:52:47.867Z,0.50
2022-09-29T03:55:14.717Z,0.60
2022-09-29T03:57:41.421Z,0.40
2022-09-29T04:00:08.856Z,0.80
2022-09-29T04:02:36.075Z,0.60
2022-09-29T04:05:02.984Z,0.60
2022-09-29T04:07:29.756Z,0.83
2022-09-29T04:09:56.418Z,0.83
2022-09-29T04:12:23.127Z,0.50
2022-09-29T04:14:49.808Z,0.37
2022-09-29T04:17:16.584Z,0.70
2022-09-29T04:19:43.723Z,0.47
2022-09-29T04:22:11.579Z,0.60
2022-09-29T04:24:38.684Z,0.70
2022-09-29T04:27:05.426Z,0.67
2022-09-29T04:29:32.100Z,0.70
2022-09-29T04:31:58.801Z,0.50
2022-09-29T04:34:25.542Z,0.70
2022-09-29T04:36:52.523Z,0.87
2022-09-29T04:39:19.250Z,0.80
2022-09-29T04:41:46.043Z,0.63
2022-09-29T04:44:12.771Z,0.83
2022-09-29T04:46:39.508Z,0.90
2022-09-29T04:49:07.171Z,0.73
2022-09-29T04:51:33.835Z,0.90
2022-09-29T04:54:00.553Z,0.80
2022-09-29T04:56:31.516Z,0.77
2022-09-29T04:58:59.197Z,0.90
2022-09-29T05:01:26.338Z,1.27
2022-09-29T05:03:53.094Z,0.80
2022-09-29T05:06:19.813Z,1.03
2022-09-29T05:08:46.575Z,1.20
2022-09-29T05:11:13.470Z,0.93
2022-09-29T05:13:40.192Z,0.80
2022-09-29T05:16:07.307Z,1.30
2022-09-29T05:18:34.714Z,0.70
2022-09-29T05:21:26.585Z,0.70
2022-09-29T05:23:52.740Z,1.00
2022-09-29T05:26:19.530Z,1.40
2022-09-29T05:28:47.544Z,1.03
2022-09-29T05:31:15.279Z,1.70
2022-09-29T05:33:42.092Z,2.13
2022-09-29T05:36:10.862Z,2.07
2022-09-29T05:38:38.031Z,2.50
2022-09-29T05:41:11.147Z,2.37
2022-09-29T05:43:38.858Z,2.70
2022-09-29T05:46:07.778Z,3.23
2022-09-29T05:48:34.766Z,3.30
2022-09-29T05:51:08.686Z,2.97
2022-09-29T05:53:35.609Z,2.50
2022-09-29T05:56:22.706Z,2.90
2022-09-29T05:58:49.817Z,2.10
2022-09-29T06:01:22.153Z,2.50
2022-09-29T06:03:48.876Z,2.30
2022-09-29T06:06:19.040Z,2.90
2022-09-29T06:08:47.788Z,1.73
2022-09-29T06:11:20.179Z,1.50
2022-09-29T06:13:50.405Z,1.60
2022-09-29T06:16:21.180Z,1.30
2022-09-29T06:18:48.488Z,1.60
2022-09-29T06:21:18.736Z,1.50
2022-09-29T06:23:45.946Z,1.00
2022-09-29T06:26:15.125Z,1.37
2022-09-29T06:28:42.669Z,0.77
2022-09-29T06:31:16.351Z,1.00
2022-09-29T06:33:43.254Z,1.30
2022-09-29T06:36:35.839Z,1.30
2022-09-29T06:39:04.295Z,1.60
2022-09-29T06:41:31.166Z,1.00
2022-09-29T06:43:58.117Z,1.27
2022-09-29T06:46:27.041Z,1.70
2022-09-29T06:48:55.086Z,1.20
2022-09-29T06:51:35.898Z,3.00
2022-09-29T06:54:11.623Z,2.73
2022-09-29T06:56:39.071Z,3.53
2022-09-29T06:59:06.128Z,1.77
2022-09-29T07:01:32.916Z,2.50
2022-09-29T07:04:02.558Z,2.23
2022-09-29T07:06:30.531Z,2.10
2022-09-29T07:08:59.011Z,1.93
2022-09-29T07:11:28.959Z,1.13
2022-09-29T07:13:55.747Z,2.10
2022-09-29T07:16:24.345Z,2.10
2022-09-29T07:18:51.786Z,1.60
2022-09-29T07:21:18.920Z,1.50
2022-09-29T07:23:47.059Z,2.10
2022-09-29T07:26:16.861Z,2.77
2022-09-29T07:28:45.044Z,3.70
2022-09-29T07:31:17.635Z,5.63
2022-09-29T07:33:45.886Z,2.77
2022-09-29T07:36:13.845Z,7.87
2022-09-29T07:38:40.817Z,2.60
2022-09-29T07:41:10.255Z,17.60
2022-09-29T07:43:37.146Z,2.97
2022-09-29T07:46:04.615Z,1.37
2022-09-29T07:48:32.512Z,0.97
2022-09-29T07:51:11.548Z,0.90
2022-09-29T07:53:38.600Z,1.10
2022-09-29T07:56:11.074Z,1.20
2022-09-29T07:58:37.915Z,1.30
2022-09-29T08:01:10.499Z,0.80
2022-09-29T08:03:39.085Z,0.93
2022-09-29T08:06:06.969Z,8.40
2022-09-29T08:08:37.317Z,18.10
2022-09-29T08:11:27.239Z,16.13
2022-09-29T08:13:57.490Z,6.73
2022-09-29T08:16:24.406Z,0.60
2022-09-29T08:18:51.536Z,0.67
2022-09-29T08:21:18.415Z,0.50
2022-09-29T08:23:45.300Z,0.63
2022-09-29T08:26:15.153Z,4.70
2022-09-29T08:28:42.736Z,9.83
2022-09-29T08:31:15.080Z,2.30
2022-09-29T08:33:42.023Z,0.30
2022-09-29T08:36:15.108Z,0.53
2022-09-29T08:38:46.399Z,1.20
2022-09-29T08:41:25.136Z,0.40
2022-09-29T08:43:58.798Z,0.50
2022-09-29T08:46:47.407Z,0.43
2022-09-29T08:49:31.280Z,0.50
2022-09-29T08:52:15.794Z,0.80
2022-09-29T08:54:48.757Z,0.60
2022-09-29T08:57:19.025Z,0.70
2022-09-29T08:59:57.932Z,0.40
2022-09-29T09:02:56.479Z,0.67
2022-09-29T09:05:51.430Z,0.20
2022-09-29T09:08:41.664Z,0.63
2022-09-29T09:11:15.694Z,0.90
2022-09-29T09:13:51.551Z,0.53
2022-09-29T09:16:44.461Z,1.60
2022-09-29T09:19:55.305Z,4.03
2022-09-29T09:22:24.254Z,0.40
2022-09-29T09:24:57.006Z,0.87
2022-09-29T09:27:32.034Z,0.30
2022-09-29T09:30:05.386Z,0.77
2022-09-29T09:32:37.981Z,0.20
2022-09-29T09:35:28.891Z,0.20
2022-09-29T09:38:00.313Z,0.40
2022-09-29T09:40:41.255Z,0.20
2022-09-29T09:43:15.122Z,0.30
2022-09-29T09:45:57.135Z,0.40
2022-09-29T09:48:37.140Z,0.30
2022-09-29T09:54:24.733Z,0.30
2022-09-29T09:56:57.298Z,0.33
2022-09-29T10:00:00.218Z,0.60
2022-09-29T10:02:27.207Z,0.30
2022-09-29T10:04:54.544Z,0.30
2022-09-29T10:07:23.072Z,0.40
2022-09-29T10:09:50.494Z,0.20
2022-09-29T10:12:22.327Z,0.30
2022-09-29T10:15:05.507Z,0.50
2022-09-29T10:17:38.252Z,0.57
2022-09-29T10:20:07.431Z,0.27
2022-09-29T10:22:35.004Z,0.40
2022-09-29T10:25:20.053Z,0.20
2022-09-29T10:27:49.927Z,0.63
2022-09-29T10:30:19.900Z,0.30
2022-09-29T10:32:47.403Z,0.73
2022-09-29T10:35:24.001Z,0.70
2022-09-29T10:38:06.745Z,0.43
2022-09-29T10:40:33.661Z,0.50
2022-09-29T10:43:23.406Z,0.30
2022-09-29T10:45:50.524Z,0.30
2022-09-29T10:48:19.180Z,0.30
2022-09-29T10:53:36.653Z,0.37
2022-09-29T10:56:22.394Z,1.63
2022-09-29T10:59:00.366Z,2.33
2022-09-29T11:01:33.516Z,0.30
2022-09-29T11:04:06.975Z,0.70
2022-09-29T11:06:43.674Z,0.30
2022-09-29T11:09:13.806Z,0.40
2022-09-29T11:11:57.938Z,0.30
2022-09-29T11:14:31.073Z,0.30
2022-09-29T11:17:00.369Z,0.30
2022-09-29T11:19:29.001Z,0.63
2022-09-29T11:22:08.953Z,0.30
2022-09-29T11:24:41.495Z,0.57
2022-09-29T11:27:45.034Z,0.30
2022-09-29T11:30:19.947Z,0.30
2022-09-29T11:33:05.358Z,1.70
2022-09-29T11:35:39.774Z,0.50
2022-09-29T11:38:20.188Z,0.30
2022-09-29T11:40:51.324Z,0.40
2022-09-29T11:43:26.576Z,0.70
2022-09-29T11:46:08.140Z,0.50
2022-09-29T11:48:34.894Z,0.33
2022-09-29T11:51:16.017Z,0.20
2022-09-29T11:54:05.186Z,0.40
2022-09-29T11:57:14.378Z,0.30
2022-09-29T11:59:51.914Z,0.30
2022-09-29T12:02:56.504Z,0.40
2022-09-29T12:05:29.263Z,2.40
2022-09-29T12:08:32.625Z,0.63
2022-09-29T12:11:47.469Z,0.63
2022-09-29T12:14:20.685Z,0.30
2022-09-29T12:16:55.252Z,0.30
2022-09-29T12:19:25.132Z,0.30
2022-09-29T12:21:53.094Z,0.50
2022-09-29T12:24:33.758Z,0.63
2022-09-29T12:27:03.794Z,0.80
2022-09-29T12:29:43.826Z,0.60
2022-09-29T12:32:24.674Z,0.47
2022-09-29T12:34:54.575Z,0.30
2022-09-29T12:37:30.231Z,0.63
2022-09-29T12:40:06.816Z,0.40
2022-09-29T12:42:48.963Z,0.30
2022-09-29T12:45:35.372Z,0.57
2022-09-29T12:48:22.213Z,0.47
2022-09-29T12:50:52.538Z,0.50
2022-09-29T12:53:28.337Z,1.70
2022-09-29T12:56:10.160Z,0.20
2022-09-29T12:58:41.894Z,0.20
2022-09-29T13:01:29.814Z,0.50
2022-09-29T13:04:15.613Z,0.40
2022-09-29T13:07:12.094Z,0.53
2022-09-29T13:09:48.823Z,0.50
2022-09-29T13:12:24.624Z,0.30
2022-09-29T13:14:57.484Z,0.40
2022-09-29T13:17:28.386Z,0.30
2022-09-29T13:20:08.325Z,0.53
2022-09-29T13:22:50.434Z,0.53
2022-09-29T13:25:35.994Z,0.40
2022-09-29T13:28:05.343Z,0.60
2022-09-29T13:30:34.952Z,0.30
2022-09-29T13:33:17.220Z,0.47
2022-09-29T13:35:46.465Z,1.53
2022-09-29T13:38:24.976Z,12.10
2022-09-29T13:41:23.832Z,2.20
2022-09-29T13:43:50.457Z,3.70
2022-09-29T13:46:32.324Z,2.27
2022-09-29T13:49:13.957Z,5.60
2022-09-29T13:52:23.464Z,7.40
2022-09-29T13:54:50.232Z,6.13
2022-09-29T13:57:27.145Z,3.33
2022-09-29T13:59:54.475Z,4.30
2022-09-29T14:02:37.300Z,7.43
2022-09-29T14:05:06.767Z,5.70
2022-09-29T14:07:51.470Z,9.70
2022-09-29T14:10:36.520Z,4.20
2022-09-29T14:13:08.814Z,1.43
2022-09-29T14:15:40.307Z,1.20
2022-09-29T14:18:21.224Z,1.27
2022-09-29T14:21:06.524Z,0.80
2022-09-29T14:23:52.015Z,1.00
2022-09-29T14:26:54.694Z,1.00
2022-09-29T14:29:30.467Z,1.27
2022-09-29T14:31:59.318Z,2.07
2022-09-29T14:34:31.784Z,2.50
2022-09-29T14:36:59.268Z,2.27
2022-09-29T14:39:27.409Z,1.50
2022-09-29T14:41:54.352Z,1.70
2022-09-29T14:44:49.264Z,2.30
2022-09-29T14:47:58.666Z,3.10
2022-09-29T14:51:09.075Z,1.20
2022-09-29T14:53:47.726Z,1.13
2022-09-29T14:56:28.915Z,3.47
2022-09-29T14:59:01.384Z,1.67
2022-09-29T15:01:32.682Z,2.03
2022-09-29T15:04:13.323Z,2.23
2022-09-29T15:06:51.593Z,2.00
2022-09-29T15:09:21.555Z,1.63
2022-09-29T15:11:53.124Z,2.40
2022-09-29T15:14:26.155Z,1.90
2022-09-29T15:17:14.878Z,2.30
2022-09-29T15:19:56.108Z,1.90
2022-09-29T15:22:30.945Z,2.40
2022-09-29T15:25:10.352Z,3.50
2022-09-29T15:27:39.216Z,2.37
2022-09-29T15:30:19.748Z,1.90
2022-09-29T15:32:48.419Z,2.00
2022-09-29T15:35:24.306Z,1.50
2022-09-29T15:37:50.967Z,1.43
2022-09-29T15:40:24.224Z,2.03
2022-09-29T15:42:55.821Z,3.00
2022-09-29T15:45:28.510Z,2.93
2022-09-29T15:48:03.025Z,2.93
2022-09-29T15:50:32.554Z,1.90
2022-09-29T15:53:03.565Z,2.17
2022-09-29T15:55:31.567Z,1.40
2022-09-29T15:57:59.066Z,1.33
2022-09-29T16:00:26.909Z,1.90
2022-09-29T16:03:12.395Z,1.60
2022-09-29T16:05:45.297Z,3.00
2022-09-29T16:08:24.813Z,2.40
2022-09-29T16:10:56.863Z,3.00
2022-09-29T16:13:34.816Z,4.17
2022-09-29T16:16:12.219Z,2.83
2022-09-29T16:18:43.298Z,1.77
2022-09-29T16:21:15.555Z,1.80
2022-09-29T16:23:49.583Z,2.53
2022-09-29T16:26:40.777Z,2.70
2022-09-29T16:29:10.427Z,2.90
2022-09-29T16:31:39.718Z,2.70
2022-09-29T16:34:22.837Z,2.57
2022-09-29T16:36:52.178Z,2.40
2022-09-29T16:39:24.245Z,1.90
2022-09-29T16:41:53.101Z,1.57
2022-09-29T16:44:27.205Z,1.80
2022-09-29T16:47:12.581Z,3.47
2022-09-29T16:49:49.376Z,2.83
2022-09-29T16:52:27.108Z,2.70
2022-09-29T16:55:08.075Z,2.20
2022-09-29T16:57:34.872Z,1.53
2022-09-29T17:00:06.363Z,4.13
2022-09-29T17:02:33.086Z,2.70
2022-09-29T17:05:01.394Z,4.13
2022-09-29T17:07:28.793Z,5.03
2022-09-29T17:09:57.533Z,2.83
2022-09-29T17:12:25.410Z,2.70
2022-09-29T17:14:52.094Z,2.40
2022-09-29T17:17:23.954Z,3.00
2022-09-29T17:19:51.210Z,3.00
2022-09-29T17:22:23.968Z,5.43
2022-09-29T17:24:50.588Z,2.50
2022-09-29T17:27:35.950Z,1.47
2022-09-29T17:30:03.247Z,4.00
2022-09-29T17:32:29.913Z,3.37
2022-09-29T17:34:56.667Z,3.90
2022-09-29T17:37:23.322Z,2.67
2022-09-29T17:39:49.915Z,1.97
2022-09-29T17:42:17.595Z,0.90
2022-09-29T17:44:45.382Z,0.77
2022-09-29T17:47:37.319Z,0.70
2022-09-29T17:50:16.561Z,0.90
2022-09-29T17:52:43.255Z,0.93
2022-09-29T17:55:11.927Z,0.97
2022-09-29T17:57:39.356Z,1.03
2022-09-29T18:00:21.991Z,0.97
2022-09-29T18:02:50.523Z,1.40
2022-09-29T18:05:25.218Z,1.10
2022-09-29T18:07:52.936Z,0.90
2022-09-29T18:10:31.944Z,1.23
2022-09-29T18:12:58.584Z,1.60
2022-09-29T18:15:25.959Z,3.87
2022-09-29T18:18:00.195Z,9.77
2022-09-29T18:20:29.896Z,1.50
2022-09-29T18:22:59.130Z,0.60
2022-09-29T18:25:29.270Z,1.50
2022-09-29T18:27:55.983Z,1.97
2022-09-29T18:30:25.195Z,1.17
2022-09-29T18:32:55.257Z,2.20
2022-09-29T18:35:24.432Z,2.00
2022-09-29T18:37:51.305Z,1.83
2022-09-29T18:40:19.006Z,1.83
2022-09-29T18:42:48.127Z,1.80
2022-09-29T18:45:23.312Z,1.70
2022-09-29T18:48:00.438Z,1.10
2022-09-29T18:50:40.125Z,1.07
2022-09-29T18:53:06.740Z,1.20
2022-09-29T18:55:33.381Z,0.63
2022-09-29T18:58:00.871Z,1.10
2022-09-29T19:00:42.128Z,1.10
2022-09-29T19:03:08.748Z,0.73
2022-09-29T19:05:36.960Z,0.90
2022-09-29T19:08:05.681Z,2.73
2022-09-29T19:10:34.596Z,2.20
2022-09-29T19:13:04.525Z,3.20
2022-09-29T19:15:35.531Z,3.00
2022-09-29T19:18:02.780Z,1.97
2022-09-29T19:20:30.151Z,1.60
2022-09-29T19:23:02.596Z,1.00
2022-09-29T19:25:36.335Z,0.90
2022-09-29T19:28:07.322Z,1.07
2022-09-29T19:30:36.875Z,2.03
2022-09-29T19:33:04.061Z,1.50
2022-09-29T19:35:30.838Z,0.63
2022-09-29T19:37:59.364Z,1.60
2022-09-29T19:40:29.102Z,1.23
2022-09-29T19:42:58.556Z,0.83
2022-09-29T19:45:25.939Z,0.63
2022-09-29T19:47:57.106Z,0.70
2022-09-29T19:50:43.572Z,0.40
2022-09-29T19:53:10.452Z,0.67
2022-09-29T19:55:40.194Z,0.70
2022-09-29T19:58:07.466Z,1.43
2022-09-29T20:00:34.428Z,0.70
2022-09-29T20:03:01.481Z,0.57
2022-09-29T20:05:28.176Z,1.10
2022-09-29T20:07:54.835Z,0.87
2022-09-29T20:10:22.143Z,0.70
2022-09-29T20:12:48.730Z,0.90
2022-09-29T20:15:15.509Z,1.60
2022-09-29T20:17:44.214Z,1.80
2022-09-29T20:20:11.850Z,3.23
2022-09-29T20:22:38.997Z,3.23
2022-09-29T20:25:07.467Z,3.23
2022-09-29T20:27:35.860Z,2.73
2022-09-29T20:30:05.140Z,2.83
2022-09-29T20:32:33.708Z,3.03
2022-09-29T20:35:00.884Z,3.90
2022-09-29T20:37:29.059Z,3.87
2022-09-29T20:39:55.966Z,5.37
2022-09-29T20:42:23.552Z,3.20
2022-09-29T20:44:56.273Z,4.00
2022-09-29T20:47:26.732Z,3.50
2022-09-29T20:49:55.093Z,2.87
2022-09-29T20:52:25.032Z,1.67
2022-09-29T20:54:51.624Z,2.30
2022-09-29T20:57:18.200Z,1.40
2022-09-29T20:59:44.950Z,1.87
2022-09-29T21:02:12.483Z,1.07
2022-09-29T21:04:39.614Z,1.10
2022-09-29T21:07:26.227Z,0.60
2022-09-29T21:09:53.054Z,0.77
2022-09-29T21:12:19.742Z,0.60
2022-09-29T21:14:46.284Z,0.97
2022-09-29T21:17:12.940Z,0.63
2022-09-29T21:19:39.653Z,0.70
2022-09-29T21:22:06.293Z,0.60
2022-09-29T21:24:33.809Z,0.73
2022-09-29T21:27:00.428Z,0.50
2022-09-29T21:29:27.137Z,0.90
2022-09-29T21:31:53.742Z,1.00
2022-09-29T21:34:21.167Z,0.80
2022-09-29T21:36:47.906Z,0.43
2022-09-29T21:39:14.800Z,0.87
2022-09-29T21:41:42.765Z,1.00
2022-09-29T21:44:27.558Z,0.77
2022-09-29T21:46:54.256Z,0.67
2022-09-29T21:49:21.124Z,0.67
2022-09-29T21:51:49.451Z,0.90
2022-09-29T21:54:18.904Z,0.67
2022-09-29T21:56:46.892Z,0.83
2022-09-29T21:59:15.617Z,0.63
2022-09-29T22:01:42.791Z,0.80
2022-09-29T22:04:10.731Z,0.70
2022-09-29T22:06:38.119Z,1.00
2022-09-29T22:09:06.766Z,0.80
2022-09-29T22:11:42.460Z,0.60
2022-09-29T22:14:11.243Z,0.97
2022-09-29T22:16:37.841Z,0.93
2022-09-29T22:21:53.274Z,0.80
2022-09-29T22:24:19.813Z,0.90
2022-09-29T22:26:46.469Z,0.77
2022-09-29T22:29:13.462Z,1.70
2022-09-29T22:31:40.498Z,1.77
2022-09-29T22:34:08.929Z,1.83
2022-09-29T22:36:35.865Z,2.53
2022-09-29T22:39:04.005Z,2.17
2022-09-29T22:41:31.110Z,2.00
2022-09-29T22:43:59.551Z,1.80
2022-09-29T22:46:28.601Z,1.80
2022-09-29T22:48:55.746Z,1.90
2022-09-29T22:51:22.397Z,2.10
2022-09-29T22:53:49.509Z,0.93
2022-09-29T22:56:18.919Z,1.10
2022-09-29T22:58:46.016Z,1.10
2022-09-29T23:01:15.392Z,1.00
2022-09-29T23:03:44.582Z,1.30
2022-09-29T23:06:12.023Z,1.93
2022-09-29T23:08:39.314Z,1.10
2022-09-29T23:11:08.120Z,1.40
2022-09-29T23:13:40.649Z,1.83
2022-09-29T23:16:12.474Z,1.10
2022-09-29T23:18:46.084Z,1.00
2022-09-29T23:21:19.515Z,0.40
2022-09-29T23:23:48.453Z,0.30
2022-09-29T23:26:15.696Z,0.50
2022-09-29T23:28:42.291Z,0.37
2022-09-29T23:31:10.606Z,0.40
2022-09-29T23:33:37.656Z,0.30
2022-09-29T23:36:12.241Z,1.00
2022-09-29T23:38:58.784Z,0.93
2022-09-29T23:41:27.994Z,0.90
2022-09-29T23:43:58.104Z,1.10
2022-09-29T23:46:27.100Z,0.80
2022-09-29T23:48:53.803Z,0.60
2022-09-29T23:51:21.004Z,0.90
2022-09-29T23:53:47.672Z,0.60
2022-09-29T23:56:14.514Z,0.60
2022-09-29T23:58:41.677Z,0.70
